KBWI/BWI METAR and TAF weather

Enter ICAO airport designator
Station Type Date Time Source
KBWI METAR 2019/10/16 19:31 UTC NOAA

KBWI 161931Z 31008KT 4SM RA BR BKN011 BKN018 OVC026 16/15 A2951 RMK AO2 P0019 T01560150


Station Type Date Time Source
KBWI Decoded METAR 2019/10/16 19:31 UTC NOAA

BALTIMORE-WASHINGTON INTERNATIONAL , MD, United States (KBWI) 39-10N 076-41W 59M
Oct 16, 2019 - 03:31 PM EDT / 2019.10.16 1931 UTC
Wind: from the NW (310 degrees) at 9 MPH (8 KT):0
Visibility: 4 mile(s):0
Sky conditions: overcast
Weather: rain; mist
Precipitation last hour: 0.19 inches
Temperature: 60.1 F (15.6 C)
Dew Point: 59.0 F (15.0 C)
Relative Humidity: 96%
Pressure (altimeter): 29.51 in. Hg (999 hPa)
ob: KBWI 161931Z 31008KT 4SM RA BR BKN011 BKN018 OVC026 16/15 A2951 RMK AO2 P0019 T01560150
cycle: 19

Station Type Date Time Source
KBWI TAF 2019/10/16 18:22 UTC NOAA

TAF KBWI 161720Z 1618/1724 09007KT 1 1/2SM RA OVC010
FM162100 29010G17KT 2SM -RA OVC010
FM162300 30015G24KT P6SM BKN130
FM170200 30018G33KT P6SM FEW250

Example: see airport list